createdAt,value
2019-04-27T00:01:55.028Z,49.27
2019-04-27T00:04:25.452Z,49.10
2019-04-27T00:06:55.772Z,49.38
2019-04-27T00:09:33.972Z,49.55
2019-04-27T00:12:16.529Z,49.57
2019-04-27T00:14:43.983Z,49.34
2019-04-27T00:17:21.020Z,49.48
2019-04-27T00:19:49.078Z,49.38
2019-04-27T00:22:19.341Z,49.32
2019-04-27T00:24:48.047Z,49.13
2019-04-27T00:27:16.795Z,49.23
2019-04-27T00:29:45.492Z,49.27
2019-04-27T00:32:14.288Z,49.11
2019-04-27T00:34:43.871Z,49.05
2019-04-27T00:37:19.976Z,49.06
2019-04-27T00:39:50.288Z,49.33
2019-04-27T00:42:18.984Z,50.08
2019-04-27T00:44:47.691Z,50.35
2019-04-27T00:47:16.421Z,49.97
2019-04-27T00:49:45.123Z,49.50
2019-04-27T00:52:14.022Z,49.89
2019-04-27T00:54:44.142Z,49.94
2019-04-27T00:57:20.454Z,50.39
2019-04-27T00:59:59.551Z,50.48
2019-04-27T01:02:29.810Z,50.66
2019-04-27T01:04:58.502Z,50.42
2019-04-27T01:07:27.259Z,50.21
2019-04-27T01:09:55.889Z,50.30
2019-04-27T01:12:24.579Z,50.30
2019-04-27T01:14:53.597Z,50.68
2019-04-27T01:17:22.287Z,50.49
2019-04-27T01:19:50.993Z,50.35
2019-04-27T01:22:19.720Z,50.36
2019-04-27T01:24:49.217Z,50.04
2019-04-27T01:27:19.574Z,50.13
2019-04-27T01:29:49.995Z,50.23
2019-04-27T01:32:20.772Z,50.24
2019-04-27T01:34:49.458Z,50.64
2019-04-27T01:37:19.529Z,50.81
2019-04-27T01:39:50.346Z,52.70
2019-04-27T01:42:19.455Z,52.17
2019-04-27T01:44:49.594Z,51.54
2019-04-27T01:47:18.772Z,51.13
2019-04-27T01:49:49.390Z,51.07
2019-04-27T01:52:19.437Z,51.24
2019-04-27T01:54:49.515Z,51.92
2019-04-27T01:57:19.433Z,51.21
2019-04-27T01:59:48.939Z,50.93
2019-04-27T02:02:26.103Z,51.60
2019-04-27T02:04:59.383Z,52.67
2019-04-27T02:07:30.132Z,53.11
2019-04-27T02:09:58.932Z,52.35
2019-04-27T02:12:29.123Z,53.41
2019-04-27T02:14:58.851Z,53.07
2019-04-27T02:17:28.831Z,52.60
2019-04-27T02:19:59.420Z,52.57
2019-04-27T02:22:29.733Z,52.39
2019-04-27T02:24:59.114Z,52.77
2019-04-27T02:27:29.338Z,53.07
2019-04-27T02:30:05.724Z,52.72
2019-04-27T02:32:36.037Z,52.28
2019-04-27T02:35:06.502Z,52.01
2019-04-27T02:37:35.201Z,52.35
2019-04-27T02:40:05.395Z,51.96
2019-04-27T02:42:35.652Z,51.65
2019-04-27T02:45:05.055Z,51.69
2019-04-27T02:47:33.789Z,51.73
2019-04-27T02:50:02.412Z,51.89
2019-04-27T02:52:35.396Z,52.07
2019-04-27T02:55:05.018Z,52.00
2019-04-27T02:57:33.716Z,51.87
2019-04-27T03:00:02.411Z,51.76
2019-04-27T03:02:35.645Z,52.06
2019-04-27T03:05:04.946Z,52.64
2019-04-27T03:07:33.646Z,52.22
2019-04-27T03:10:02.887Z,52.39
2019-04-27T03:12:33.217Z,52.15
2019-04-27T03:15:06.209Z,52.08
2019-04-27T03:17:36.534Z,52.16
2019-04-27T03:20:14.842Z,52.70
2019-04-27T03:22:45.139Z,53.78
2019-04-27T03:25:15.928Z,54.01
2019-04-27T03:27:46.196Z,53.53
2019-04-27T03:30:16.041Z,53.25
2019-04-27T03:32:44.736Z,53.15
2019-04-27T03:35:14.148Z,53.04
2019-04-27T03:37:44.511Z,53.68
2019-04-27T03:40:13.419Z,52.95
2019-04-27T03:42:43.687Z,52.46
2019-04-27T03:45:12.547Z,52.30
2019-04-27T03:47:41.202Z,53.09
2019-04-27T03:50:12.076Z,53.13
2019-04-27T03:52:59.881Z,52.99
2019-04-27T03:55:30.658Z,55.32
2019-04-27T03:58:21.731Z,54.27
2019-04-27T04:00:52.136Z,53.97
2019-04-27T04:03:21.029Z,53.44
2019-04-27T04:05:52.050Z,52.99
2019-04-27T04:08:20.264Z,53.70
2019-04-27T04:10:50.529Z,55.97
2019-04-27T04:13:22.709Z,55.11
2019-04-27T04:15:52.822Z,54.28
2019-04-27T04:18:21.722Z,53.94
2019-04-27T04:20:50.681Z,54.08
2019-04-27T04:23:20.353Z,54.36
2019-04-27T04:25:50.034Z,54.67
2019-04-27T04:28:19.886Z,54.29
2019-04-27T04:30:50.183Z,53.69
2019-04-27T04:33:20.551Z,53.50
2019-04-27T04:35:49.982Z,53.04
2019-04-27T04:38:21.025Z,53.06
2019-04-27T04:40:51.290Z,52.77
2019-04-27T04:43:36.475Z,53.51
2019-04-27T04:46:23.259Z,53.64
2019-04-27T04:48:53.020Z,53.57
2019-04-27T04:51:21.722Z,53.41
2019-04-27T04:53:51.787Z,54.11
2019-04-27T04:56:20.682Z,53.53
2019-04-27T04:58:49.785Z,53.35
2019-04-27T05:01:19.667Z,52.82
2019-04-27T05:03:48.920Z,52.41
2019-04-27T05:06:18.991Z,52.16
2019-04-27T05:08:49.384Z,52.11
2019-04-27T05:11:19.598Z,52.02
2019-04-27T05:13:49.407Z,51.99
2019-04-27T05:16:18.881Z,52.09
2019-04-27T05:18:49.418Z,52.35
2019-04-27T05:21:32.016Z,53.50
2019-04-27T05:24:00.901Z,53.27
2019-04-27T05:45:03.874Z,51.58
2019-04-27T05:47:51.838Z,52.88
2019-04-27T05:50:21.997Z,53.40
2019-04-27T05:52:49.835Z,53.18
2019-04-27T05:55:19.187Z,54.08
2019-04-27T05:57:49.032Z,56.02
2019-04-27T06:00:19.450Z,55.89
2019-04-27T06:02:48.758Z,55.95
2019-04-27T06:05:19.003Z,55.77
2019-04-27T06:07:48.799Z,55.29
2019-04-27T06:10:19.666Z,54.18
2019-04-27T06:12:48.659Z,53.71
2019-04-27T06:15:17.358Z,53.45
2019-04-27T06:17:46.080Z,53.74
2019-04-27T06:20:14.813Z,53.66
2019-04-27T06:22:43.444Z,54.94
2019-04-27T06:25:12.188Z,53.94
2019-04-27T06:27:40.872Z,52.10
2019-04-27T06:30:09.779Z,50.48
2019-04-27T06:32:39.556Z,50.91
2019-04-27T06:35:09.152Z,52.85
2019-04-27T06:37:39.010Z,51.18
2019-04-27T06:40:09.648Z,52.22
2019-04-27T07:01:53.838Z,49.13
2019-04-27T07:04:22.532Z,50.25
2019-04-27T07:06:55.845Z,50.04
2019-04-27T07:09:21.616Z,49.82
2019-04-27T07:11:50.310Z,48.21
2019-04-27T07:14:19.682Z,47.37
2019-04-27T07:16:48.820Z,47.58
2019-04-27T07:19:19.152Z,48.16
2019-04-27T07:21:49.652Z,47.26
2019-04-27T07:24:19.663Z,47.86
2019-04-27T07:26:48.920Z,48.72
2019-04-27T07:29:19.460Z,48.02
2019-04-27T07:31:49.583Z,46.87
2019-04-27T07:34:18.998Z,47.86
2019-04-27T07:36:49.133Z,48.93
2019-04-27T07:39:19.206Z,47.84
2019-04-27T07:41:48.810Z,48.04
2019-04-27T07:44:25.042Z,49.90
2019-04-27T07:47:11.386Z,47.97
2019-04-27T07:49:40.045Z,47.33
2019-04-27T07:52:08.811Z,46.73
2019-04-27T07:54:38.518Z,46.11
2019-04-27T07:57:09.726Z,47.85
2019-04-27T07:59:41.495Z,46.69
2019-04-27T08:02:10.957Z,46.71
2019-04-27T08:04:40.038Z,46.82
2019-04-27T08:07:09.214Z,46.65
2019-04-27T08:09:39.614Z,49.06
2019-04-27T08:12:08.529Z,47.69
2019-04-27T08:14:38.459Z,47.85
2019-04-27T08:17:07.220Z,46.66
2019-04-27T08:19:35.958Z,46.02
2019-04-27T08:22:04.587Z,46.16
2019-04-27T08:24:33.275Z,44.76
2019-04-27T08:27:19.619Z,44.42
2019-04-27T08:29:49.885Z,45.07
2019-04-27T08:32:20.149Z,44.14
2019-04-27T08:34:49.615Z,43.13
2019-04-27T08:37:18.825Z,43.94
2019-04-27T08:39:49.578Z,43.76
2019-04-27T08:42:19.438Z,44.13
2019-04-27T08:44:49.682Z,43.70
2019-04-27T08:47:19.463Z,44.15
2019-04-27T08:49:49.152Z,42.38
2019-04-27T08:52:19.378Z,42.39
2019-04-27T08:54:49.355Z,43.73
2019-04-27T08:57:18.940Z,43.81
2019-04-27T08:59:48.959Z,43.36
2019-04-27T09:02:19.626Z,43.49
2019-04-27T09:04:49.553Z,42.46
2019-04-27T09:07:32.175Z,41.55
2019-04-27T09:10:08.687Z,40.93
2019-04-27T09:12:53.961Z,42.30
2019-04-27T09:15:24.228Z,42.24
2019-04-27T09:17:54.484Z,42.75
2019-04-27T09:20:24.746Z,42.51
2019-04-27T09:22:53.407Z,41.08
2019-04-27T09:25:22.127Z,41.88
2019-04-27T09:27:50.814Z,40.61
2019-04-27T09:30:19.545Z,40.81
2019-04-27T09:32:48.260Z,40.77
2019-04-27T09:35:16.930Z,41.93
2019-04-27T09:37:45.936Z,41.27
2019-04-27T09:40:14.856Z,40.61
2019-04-27T09:42:43.558Z,39.54
2019-04-27T09:45:12.482Z,39.80
2019-04-27T09:47:41.116Z,38.73
2019-04-27T09:50:10.315Z,40.63
2019-04-27T09:52:39.043Z,39.39
2019-04-27T09:55:08.935Z,40.18
2019-04-27T09:57:37.575Z,38.88
2019-04-27T10:00:12.029Z,37.44
2019-04-27T10:02:40.718Z,36.99
2019-04-27T10:05:09.607Z,37.72
2019-04-27T10:07:38.343Z,37.27
2019-04-27T10:10:07.728Z,37.02
2019-04-27T10:12:36.985Z,37.16
2019-04-27T10:15:06.660Z,38.20
2019-04-27T10:17:35.346Z,37.62
2019-04-27T10:20:05.967Z,38.23
2019-04-27T10:22:41.305Z,37.14
2019-04-27T10:25:08.046Z,37.11
2019-04-27T10:27:36.673Z,36.89
2019-04-27T10:30:08.932Z,37.09
2019-04-27T10:32:37.632Z,37.27
2019-04-27T10:35:07.852Z,36.91
2019-04-27T10:37:36.604Z,36.85
2019-04-27T10:40:06.303Z,36.40
2019-04-27T10:42:35.813Z,36.19
2019-04-27T10:45:08.095Z,37.59
2019-04-27T10:47:36.718Z,37.17
2019-04-27T10:50:06.919Z,37.28
2019-04-27T10:52:35.660Z,38.73
2019-04-27T10:55:05.953Z,38.18
2019-04-27T10:57:34.836Z,37.47
2019-04-27T11:00:06.587Z,37.21
2019-04-27T11:02:35.446Z,37.31
2019-04-27T11:05:10.197Z,35.93
2019-04-27T11:07:39.884Z,35.54
2019-04-27T11:10:08.686Z,36.10
2019-04-27T11:12:37.437Z,36.56
2019-04-27T11:15:08.626Z,37.65
2019-04-27T11:17:37.333Z,37.25
2019-04-27T11:20:08.127Z,36.58
2019-04-27T11:22:36.835Z,36.43
2019-04-27T11:25:07.933Z,36.41
2019-04-27T11:27:36.655Z,34.46
2019-04-27T11:30:08.253Z,34.99
2019-04-27T11:32:37.075Z,34.61
2019-04-27T11:35:20.524Z,34.11
2019-04-27T11:37:50.882Z,33.90
2019-04-27T11:40:21.786Z,34.63
2019-04-27T11:42:50.628Z,34.19
2019-04-27T11:45:19.437Z,33.05
2019-04-27T11:47:48.130Z,34.70
2019-04-27T11:50:18.661Z,34.65
2019-04-27T11:52:47.551Z,35.93
2019-04-27T11:55:16.858Z,35.57
2019-04-27T11:57:47.043Z,36.13
2019-04-27T12:00:19.258Z,36.29
2019-04-27T12:02:47.951Z,36.65
2019-04-27T12:05:16.878Z,36.66
2019-04-27T12:07:47.473Z,36.78
2019-04-27T12:10:16.277Z,37.24
2019-04-27T12:12:46.366Z,37.61
2019-04-27T12:15:16.370Z,38.85
2019-04-27T12:17:46.115Z,39.00
2019-04-27T12:20:15.923Z,38.70
2019-04-27T12:22:45.523Z,40.05
2019-04-27T12:25:15.723Z,41.47
2019-04-27T12:28:02.233Z,42.44
2019-04-27T12:30:32.489Z,45.08
2019-04-27T12:33:01.183Z,48.60
2019-04-27T12:35:29.911Z,52.25
2019-04-27T12:37:58.609Z,52.99
2019-04-27T12:40:27.304Z,54.26
2019-04-27T12:42:56.046Z,53.90
2019-04-27T12:45:26.557Z,54.68
2019-04-27T12:47:56.612Z,53.72
2019-04-27T12:50:26.082Z,55.01
2019-04-27T12:52:59.439Z,53.56
2019-04-27T12:55:38.884Z,52.69
2019-04-27T12:58:09.145Z,53.43
2019-04-27T13:00:39.488Z,56.32
2019-04-27T13:03:08.215Z,57.57
2019-04-27T13:05:36.907Z,56.87
2019-04-27T13:08:05.604Z,56.68
2019-04-27T13:10:34.335Z,56.99
2019-04-27T13:13:03.023Z,56.73
2019-04-27T13:15:31.716Z,57.40
2019-04-27T13:18:00.378Z,56.20
2019-04-27T13:20:29.086Z,56.02
2019-04-27T13:22:57.776Z,54.82
2019-04-27T13:25:26.519Z,54.33
2019-04-27T13:27:56.712Z,55.49
2019-04-27T13:30:25.882Z,53.58
2019-04-27T13:32:56.223Z,52.87
2019-04-27T13:35:25.854Z,52.32
2019-04-27T13:37:55.943Z,53.67
2019-04-27T13:40:25.888Z,52.93
2019-04-27T13:43:11.095Z,49.95
2019-04-27T13:45:44.126Z,49.74
2019-04-27T13:48:32.265Z,48.75
2019-04-27T13:51:17.478Z,54.45
2019-04-27T13:53:46.184Z,49.99
2019-04-27T13:56:14.826Z,48.05
2019-04-27T13:58:44.253Z,48.96
2019-04-27T14:01:12.951Z,50.42
2019-04-27T14:03:41.679Z,49.32
2019-04-27T14:06:10.411Z,51.94
2019-04-27T14:08:39.120Z,53.66
2019-04-27T14:11:09.563Z,53.11
2019-04-27T14:13:39.115Z,52.35
2019-04-27T14:16:08.753Z,50.58
2019-04-27T14:18:38.484Z,53.24
2019-04-27T14:21:09.292Z,56.40
2019-04-27T14:23:38.551Z,58.32
2019-04-27T14:26:08.791Z,58.03
2019-04-27T14:28:37.657Z,58.77
2019-04-27T14:31:06.355Z,58.20
2019-04-27T14:33:35.051Z,58.49
2019-04-27T14:36:03.845Z,58.37
2019-04-27T14:38:32.536Z,53.06
2019-04-27T14:41:01.233Z,54.04
2019-04-27T14:43:29.957Z,57.58
2019-04-27T14:45:58.675Z,62.42
2019-04-27T14:48:29.303Z,69.46
2019-04-27T14:50:59.056Z,66.92
2019-04-27T14:53:28.295Z,70.62
2019-04-27T14:55:58.479Z,69.81
2019-04-27T14:58:28.296Z,66.33
2019-04-27T15:00:58.557Z,64.60
2019-04-27T15:03:27.290Z,60.78
2019-04-27T15:05:56.213Z,61.81
2019-04-27T15:08:25.572Z,63.85
2019-04-27T15:10:54.499Z,64.55
2019-04-27T15:13:23.213Z,64.43
2019-04-27T15:15:51.973Z,68.45
2019-04-27T15:18:20.681Z,66.13
2019-04-27T15:20:49.415Z,67.55
2019-04-27T15:23:20.018Z,68.08
2019-04-27T15:25:50.003Z,69.29
2019-04-27T15:28:23.143Z,69.72
2019-04-27T15:30:53.403Z,69.22
2019-04-27T15:33:39.940Z,69.90
2019-04-27T15:36:10.415Z,70.63
2019-04-27T15:38:47.720Z,70.20
2019-04-27T15:41:31.619Z,69.69
2019-04-27T15:44:05.703Z,69.96
2019-04-27T15:46:33.818Z,68.37
2019-04-27T15:49:07.016Z,68.14
2019-04-27T15:51:33.243Z,68.83
2019-04-27T15:54:02.128Z,68.37
2019-04-27T15:56:35.158Z,68.95
2019-04-27T15:59:01.262Z,69.56
2019-04-27T16:01:35.766Z,70.09
2019-04-27T16:04:02.444Z,69.61
2019-04-27T16:06:30.944Z,70.30
2019-04-27T16:08:59.656Z,68.72
2019-04-27T16:11:28.381Z,69.22
2019-04-27T16:13:58.650Z,68.94
2019-04-27T16:16:29.129Z,67.88
2019-04-27T16:18:59.429Z,68.35
2019-04-27T16:21:31.387Z,67.67
2019-04-27T16:23:58.699Z,66.99
2019-04-27T16:26:28.554Z,65.87
2019-04-27T16:28:58.111Z,66.05
2019-04-27T16:31:31.479Z,69.88
2019-04-27T16:33:59.101Z,71.08
2019-04-27T16:36:28.852Z,69.20
2019-04-27T16:38:59.130Z,68.45
2019-04-27T16:41:28.192Z,68.45
2019-04-27T16:43:58.186Z,67.82
2019-04-27T16:46:28.495Z,67.04
2019-04-27T16:48:59.290Z,65.82
2019-04-27T16:51:29.690Z,66.43
2019-04-27T16:53:58.425Z,66.25
2019-04-27T16:56:28.656Z,67.11
2019-04-27T16:59:11.503Z,65.15
2019-04-27T17:01:30.395Z,65.91
2019-04-27T17:03:59.554Z,66.08
2019-04-27T17:06:29.654Z,65.68
2019-04-27T17:09:05.623Z,66.97
2019-04-27T17:11:29.790Z,65.99
2019-04-27T17:14:00.221Z,65.35
2019-04-27T17:16:34.082Z,66.61
2019-04-27T17:19:19.226Z,70.60
2019-04-27T17:21:48.529Z,69.80
2019-04-27T17:24:21.098Z,69.37
2019-04-27T17:26:49.817Z,69.21
2019-04-27T17:29:20.449Z,68.50
2019-04-27T17:31:55.206Z,67.46
2019-04-27T17:34:25.203Z,67.55
2019-04-27T17:36:54.627Z,68.48
2019-04-27T17:39:23.511Z,66.74
2019-04-27T17:41:52.959Z,66.11
2019-04-27T17:44:23.110Z,63.95
2019-04-27T17:46:52.062Z,63.50
2019-04-27T17:49:20.783Z,63.32
2019-04-27T17:51:49.474Z,62.68
2019-04-27T17:54:18.296Z,63.22
2019-04-27T17:56:49.577Z,62.69
2019-04-27T17:59:20.685Z,62.14
2019-04-27T18:01:49.542Z,61.28
2019-04-27T18:04:18.611Z,60.84
2019-04-27T18:06:48.384Z,60.39
2019-04-27T18:09:18.776Z,61.29
2019-04-27T18:11:48.564Z,65.71
2019-04-27T18:14:19.294Z,66.84
2019-04-27T18:16:48.255Z,66.35
2019-04-27T18:19:21.439Z,64.99
2019-04-27T18:22:01.079Z,63.59
2019-04-27T18:24:31.413Z,64.40
2019-04-27T18:27:04.330Z,64.18
2019-04-27T18:29:32.103Z,62.64
2019-04-27T18:32:00.834Z,61.71
2019-04-27T18:34:29.526Z,61.24
2019-04-27T18:36:58.208Z,62.32
2019-04-27T18:39:26.943Z,64.29
2019-04-27T18:41:55.641Z,63.74
2019-04-27T18:44:29.288Z,62.51
2019-04-27T18:46:58.833Z,61.94
2019-04-27T18:49:30.114Z,61.85
2019-04-27T18:52:15.455Z,61.77
2019-04-27T18:54:44.144Z,61.68
2019-04-27T18:57:15.153Z,61.84
2019-04-27T18:59:43.218Z,61.14
2019-04-27T19:02:11.914Z,61.39
2019-04-27T19:04:40.523Z,61.49
2019-04-27T19:07:09.269Z,62.33
2019-04-27T19:09:37.975Z,62.86
2019-04-27T19:12:06.674Z,61.70
2019-04-27T19:14:35.394Z,62.00
2019-04-27T19:17:04.408Z,61.34
2019-04-27T19:19:33.109Z,61.03
2019-04-27T19:22:01.764Z,60.97
2019-04-27T19:24:30.455Z,61.07
2019-04-27T19:27:00.714Z,60.79
2019-04-27T19:29:31.012Z,61.64
2019-04-27T19:32:01.277Z,60.69
2019-04-27T19:34:29.981Z,62.85
2019-04-27T19:36:59.312Z,62.10
2019-04-27T19:39:28.570Z,63.60
2019-04-27T19:42:01.383Z,63.56
2019-04-27T19:44:29.245Z,61.82
2019-04-27T19:46:59.950Z,60.86
2019-04-27T19:49:29.379Z,61.20
2019-04-27T19:51:58.981Z,63.67
2019-04-27T19:54:29.945Z,61.66
2019-04-27T19:56:59.557Z,62.05
2019-04-27T19:59:32.962Z,62.97
2019-04-27T20:02:03.226Z,62.82
2019-04-27T20:04:36.449Z,62.82
2019-04-27T20:07:05.390Z,62.30
2019-04-27T20:09:50.542Z,62.39
2019-04-27T20:12:21.116Z,62.00
2019-04-27T20:14:55.632Z,61.46
2019-04-27T20:17:26.717Z,62.06
2019-04-27T20:19:56.218Z,62.03
2019-04-27T20:22:25.009Z,61.67
2019-04-27T20:24:53.777Z,60.59
2019-04-27T20:27:22.456Z,61.58
2019-04-27T20:29:51.356Z,62.28
2019-04-27T20:32:21.535Z,64.21
2019-04-27T20:34:51.299Z,65.00
2019-04-27T20:37:21.000Z,63.25
2019-04-27T20:39:51.437Z,61.59
2019-04-27T20:42:21.177Z,61.13
2019-04-27T20:44:51.661Z,61.12
2019-04-27T20:47:20.585Z,60.88
2019-04-27T20:49:49.269Z,63.22
2019-04-27T20:52:25.661Z,63.02
2019-04-27T20:54:54.285Z,64.57
2019-04-27T20:57:22.978Z,64.77
2019-04-27T20:59:52.344Z,64.53
2019-04-27T21:02:34.605Z,63.61
2019-04-27T21:05:21.184Z,62.66
2019-04-27T21:08:01.448Z,61.83
2019-04-27T21:10:30.773Z,60.69
2019-04-27T21:13:01.022Z,62.03
2019-04-27T21:15:31.419Z,65.12
2019-04-27T21:18:01.269Z,65.76
2019-04-27T21:20:30.956Z,64.26
2019-04-27T21:23:01.795Z,63.48
2019-04-27T21:25:31.506Z,66.13
2019-04-27T21:28:14.975Z,63.54
2019-04-27T21:30:31.394Z,63.43
2019-04-27T21:33:01.083Z,61.87
2019-04-27T21:35:29.941Z,61.91
2019-04-27T21:37:58.625Z,61.82
2019-04-27T21:40:27.355Z,59.53
2019-04-27T21:42:56.059Z,60.13
2019-04-27T21:45:24.681Z,60.16
2019-04-27T21:47:53.403Z,60.82
2019-04-27T21:50:23.184Z,61.59
2019-04-27T21:53:11.039Z,61.33
2019-04-27T21:55:39.877Z,61.63
2019-04-27T21:58:08.572Z,61.53
2019-04-27T22:00:43.120Z,63.95
2019-04-27T22:03:13.661Z,62.27
2019-04-27T22:05:42.371Z,63.86
2019-04-27T22:08:11.775Z,64.15
2019-04-27T22:10:40.515Z,65.05
2019-04-27T22:13:09.203Z,64.03
2019-04-27T22:15:37.940Z,64.46
2019-04-27T22:18:06.617Z,65.77
2019-04-27T22:20:35.913Z,67.11
2019-04-27T22:23:08.935Z,66.19
2019-04-27T22:25:38.819Z,65.01
2019-04-27T22:28:07.441Z,65.29
2019-04-27T22:30:36.376Z,65.44
2019-04-27T22:33:05.058Z,65.22
2019-04-27T22:35:33.756Z,66.16
2019-04-27T22:38:02.421Z,65.26
2019-04-27T22:40:41.974Z,66.73
2019-04-27T22:43:27.261Z,66.06
2019-04-27T22:45:56.549Z,64.30
2019-04-27T22:48:25.256Z,63.43
2019-04-27T22:50:53.982Z,61.77
2019-04-27T22:53:22.667Z,60.75
2019-04-27T22:56:08.929Z,60.02
2019-04-27T22:58:40.656Z,59.86
2019-04-27T23:01:27.006Z,62.41
2019-04-27T23:03:57.253Z,62.81
2019-04-27T23:06:25.873Z,64.71
2019-04-27T23:08:54.530Z,65.85
2019-04-27T23:11:23.218Z,66.69
2019-04-27T23:13:52.530Z,64.45
2019-04-27T23:16:22.802Z,62.71
2019-04-27T23:18:51.618Z,62.88
2019-04-27T23:21:20.871Z,65.61
2019-04-27T23:23:51.588Z,69.31
2019-04-27T23:26:21.143Z,66.21
2019-04-27T23:28:51.395Z,67.18
2019-04-27T23:31:27.823Z,65.06
2019-04-27T23:33:56.513Z,65.82
2019-04-27T23:36:25.210Z,64.90
2019-04-27T23:38:53.949Z,64.09
2019-04-27T23:41:22.564Z,61.79
2019-04-27T23:43:51.251Z,61.73
2019-04-27T23:46:21.477Z,65.44
2019-04-27T23:48:52.064Z,67.40
2019-04-27T23:51:31.233Z,65.63
2019-04-27T23:54:01.589Z,64.03
2019-04-27T23:56:31.803Z,64.05
2019-04-27T23:59:00.631Z,62.41
